Time;durP1;ratioP1;P1;durP2;ratioP2;P2;SDS_P1;SDS_P2;PMS_P1;PMS_P2;Temp;Humidity;BMP_temperature;BMP_pressure;BME280_temperature;BME280_humidity;BME280_pressure;Samples;Min_cycle;Max_cycle;Signal;HPM_P1;HPM_P2
2023/07/18 00:02:10;;;;;;;8.95;2.78;;;15.80;99.90;;;;;;5073248;28;20511;-86
2023/07/18 00:04:41;;;;;;;4.05;2.10;;;15.90;99.90;;;;;;5073175;28;20599;-85
2023/07/18 00:07:14;;;;;;;6.65;1.92;;;15.90;99.90;;;;;;5069123;28;20217;-86
2023/07/18 00:09:45;;;;;;;7.80;2.40;;;15.90;99.90;;;;;;5071760;28;20663;-86
2023/07/18 00:12:16;;;;;;;5.18;2.10;;;16.00;99.90;;;;;;5072006;28;20251;-85
2023/07/18 00:14:47;;;;;;;5.40;2.05;;;16.00;99.90;;;;;;5069238;28;20571;-86
2023/07/18 00:17:20;;;;;;;4.82;2.17;;;16.00;99.90;;;;;;5072884;28;20713;-86
2023/07/18 00:19:52;;;;;;;3.60;1.45;;;15.90;99.90;;;;;;5061229;28;20637;-87
2023/07/18 00:22:23;;;;;;;4.50;1.70;;;15.90;99.90;;;;;;5072060;28;20204;-87
2023/07/18 00:24:55;;;;;;;4.07;1.90;;;15.90;99.90;;;;;;5054649;28;20591;-86
2023/07/18 00:27:26;;;;;;;4.95;1.77;;;16.00;99.90;;;;;;5064667;28;20592;-85
2023/07/18 00:29:57;;;;;;;4.65;1.90;;;16.10;99.90;;;;;;5073348;28;20192;-87
2023/07/18 00:32:31;;;;;;;6.57;2.25;;;16.10;99.90;;;;;;5063569;28;20224;-88
2023/07/18 00:35:02;;;;;;;5.20;2.15;;;16.10;99.90;;;;;;5069660;28;20192;-85
2023/07/18 00:37:34;;;;;;;4.60;1.90;;;16.20;99.90;;;;;;5073358;28;20663;-87
2023/07/18 00:40:10;;;;;;;3.70;1.90;;;16.20;99.90;;;;;;5056068;28;20666;-85
2023/07/18 00:42:42;;;;;;;3.78;2.05;;;16.30;99.90;;;;;;5072734;28;20279;-87
2023/07/18 00:45:17;;;;;;;5.68;2.30;;;16.30;99.90;;;;;;5074395;28;20200;-88
2023/07/18 00:47:50;;;;;;;6.47;2.47;;;16.40;99.90;;;;;;5072082;28;20678;-85
2023/07/18 00:50:24;;;;;;;5.97;2.35;;;16.40;99.90;;;;;;5072081;28;20197;-85
2023/07/18 00:52:56;;;;;;;6.05;2.38;;;16.50;99.90;;;;;;5072599;28;20196;-85
2023/07/18 00:55:28;;;;;;;5.38;2.22;;;16.50;99.90;;;;;;5070664;28;20196;-86
2023/07/18 00:58:02;;;;;;;4.95;2.60;;;16.60;99.90;;;;;;5071413;28;20195;-88
2023/07/18 01:00:34;;;;;;;4.88;2.40;;;16.80;99.90;;;;;;5072851;28;20192;-85
2023/07/18 01:03:07;;;;;;;6.38;2.80;;;16.90;99.90;;;;;;5070956;28;20211;-86
2023/07/18 01:05:39;;;;;;;5.18;2.70;;;17.00;99.90;;;;;;5069195;28;20199;-87
2023/07/18 01:08:12;;;;;;;5.40;2.78;;;17.10;99.90;;;;;;5072883;28;20246;-86
2023/07/18 01:10:45;;;;;;;4.60;2.65;;;17.20;99.90;;;;;;5076261;28;20200;-87
2023/07/18 01:13:20;;;;;;;7.28;2.60;;;17.40;99.90;;;;;;5066446;28;20215;-89
2023/07/18 01:15:51;;;;;;;5.78;2.20;;;17.60;99.90;;;;;;5066586;28;20246;-92
2023/07/18 01:18:27;;;;;;;5.25;2.45;;;17.70;99.90;;;;;;5077251;28;20299;-90
2023/07/18 01:23:46;;;;;;;6.88;2.78;;;17.90;99.90;;;;;;5076919;28;20194;-90
2023/07/18 01:26:18;;;;;;;5.10;2.40;;;17.70;99.90;;;;;;5077388;28;20196;-89
2023/07/18 01:28:50;;;;;;;5.13;2.63;;;17.60;99.90;;;;;;5056916;28;20327;-89
2023/07/18 01:31:24;;;;;;;5.97;2.28;;;17.70;99.90;;;;;;5078072;28;20196;-85
2023/07/18 01:33:57;;;;;;;4.80;2.33;;;17.70;99.90;;;;;;5075025;28;20290;-89
2023/07/18 01:36:31;;;;;;;4.60;2.38;;;17.90;99.90;;;;;;5070904;28;20193;-88
2023/07/18 01:39:10;;;;;;;5.70;2.60;;;17.90;99.90;;;;;;5064643;28;20204;-88
2023/07/18 01:41:41;;;;;;;4.95;2.20;;;18.00;99.90;;;;;;5070174;28;20204;-86
2023/07/18 01:44:13;;;;;;;6.47;2.25;;;18.10;99.90;;;;;;5071604;28;20192;-88
2023/07/18 01:46:45;;;;;;;6.10;2.38;;;18.10;99.90;;;;;;5073352;28;20192;-89
2023/07/18 01:49:17;;;;;;;5.22;2.10;;;18.20;99.90;;;;;;5067087;28;20228;-88
2023/07/18 01:51:48;;;;;;;7.38;2.13;;;18.20;99.90;;;;;;5070694;28;20205;-85
2023/07/18 01:54:27;;;;;;;6.13;2.13;;;18.30;99.90;;;;;;5075106;28;20196;-86
2023/07/18 01:56:58;;;;;;;4.10;2.22;;;18.30;99.90;;;;;;5078413;28;20666;-89
2023/07/18 01:59:29;;;;;;;7.22;2.80;;;18.50;99.90;;;;;;5073020;28;20222;-87
2023/07/18 02:02:02;;;;;;;5.13;2.42;;;18.50;99.90;;;;;;5070510;28;20194;-87
2023/07/18 02:04:33;;;;;;;10.57;5.03;;;18.60;99.90;;;;;;5076255;28;20192;-87
2023/07/18 02:07:07;;;;;;;6.50;2.28;;;18.70;99.90;;;;;;5074271;28;20223;-86
2023/07/18 02:09:42;;;;;;;6.95;2.20;;;18.80;99.90;;;;;;5054301;28;20222;-86
2023/07/18 02:12:14;;;;;;;5.55;2.38;;;18.80;99.90;;;;;;5071017;28;20202;-86
2023/07/18 02:14:45;;;;;;;6.70;2.00;;;18.90;99.90;;;;;;5072380;28;20257;-87
2023/07/18 02:17:16;;;;;;;3.83;2.20;;;19.00;99.90;;;;;;5070953;28;20659;-86
2023/07/18 02:19:50;;;;;;;3.55;1.77;;;19.10;99.90;;;;;;5076691;28;20206;-87
2023/07/18 02:22:27;;;;;;;4.65;1.90;;;19.30;99.90;;;;;;5075079;28;20290;-87
2023/07/18 02:25:04;;;;;;;4.15;1.83;;;19.50;99.90;;;;;;5074900;28;20225;-87
2023/07/18 02:27:36;;;;;;;4.00;1.70;;;19.50;99.90;;;;;;5074528;28;20227;-86
2023/07/18 02:30:09;;;;;;;5.22;1.88;;;19.60;99.90;;;;;;5065203;28;20652;-86
2023/07/18 02:32:41;;;;;;;5.70;1.60;;;19.80;99.90;;;;;;5066051;28;20219;-84
2023/07/18 02:35:15;;;;;;;3.67;1.75;;;19.80;99.90;;;;;;5072834;28;20283;-87
2023/07/18 02:37:49;;;;;;;4.72;1.80;;;19.80;99.90;;;;;;5072644;28;20211;-88
2023/07/18 02:40:26;;;;;;;4.40;1.92;;;19.70;99.90;;;;;;5075051;28;20680;-85
2023/07/18 02:42:57;;;;;;;2.47;1.45;;;19.70;99.90;;;;;;5074931;28;20196;-85
2023/07/18 02:45:31;;;;;;;2.92;1.63;;;19.80;99.90;;;;;;5072936;28;20204;-86
2023/07/18 02:48:04;;;;;;;2.40;1.52;;;19.90;99.90;;;;;;5064523;28;20232;-86
2023/07/18 02:50:39;;;;;;;4.25;1.90;;;19.90;99.90;;;;;;5075900;28;20278;-87
2023/07/18 02:53:15;;;;;;;6.32;1.58;;;20.00;99.90;;;;;;5074017;28;20196;-86
2023/07/18 02:55:51;;;;;;;3.40;1.50;;;20.20;99.90;;;;;;5075934;28;20195;-87
2023/07/18 02:58:22;;;;;;;2.22;1.33;;;20.20;99.90;;;;;;5070311;28;20188;-87
2023/07/18 03:00:55;;;;;;;3.28;1.45;;;20.40;99.90;;;;;;5060585;28;20191;-87
2023/07/18 03:03:28;;;;;;;2.35;1.50;;;20.50;99.90;;;;;;5066576;28;20250;-86
2023/07/18 03:06:01;;;;;;;4.28;1.40;;;20.50;99.90;;;;;;5071114;28;20196;-89
2023/07/18 03:08:36;;;;;;;3.05;1.33;;;20.50;99.90;;;;;;5078395;28;20227;-88
2023/07/18 03:11:15;;;;;;;3.92;1.60;;;20.50;99.90;;;;;;5076262;28;20208;-87
2023/07/18 03:13:46;;;;;;;4.30;1.75;;;20.60;99.90;;;;;;5077867;28;20202;-86
2023/07/18 03:16:17;;;;;;;3.88;1.50;;;20.70;99.90;;;;;;5074399;28;20663;-88
2023/07/18 03:18:50;;;;;;;2.50;1.23;;;20.70;99.90;;;;;;5073769;28;20223;-89
2023/07/18 03:21:22;;;;;;;3.63;1.60;;;20.70;99.90;;;;;;5067212;28;20196;-90
2023/07/18 03:23:56;;;;;;;3.28;1.20;;;20.80;99.90;;;;;;5056836;28;20207;-88
2023/07/18 03:26:32;;;;;;;4.45;1.30;;;20.90;99.90;;;;;;5073646;28;20375;-88
2023/07/18 03:29:03;;;;;;;2.38;1.23;;;21.00;99.90;;;;;;5059580;28;20306;-87
2023/07/18 03:31:43;;;;;;;2.13;1.10;;;21.10;99.90;;;;;;5084463;28;20199;-87
2023/07/18 03:34:15;;;;;;;1.27;1.13;;;21.00;99.90;;;;;;5078028;28;20199;-90
2023/07/18 03:36:51;;;;;;;2.97;1.30;;;21.10;99.90;;;;;;5092027;28;20187;-83
2023/07/18 03:39:23;;;;;;;2.90;1.55;;;21.10;99.90;;;;;;5064807;28;20200;-88
2023/07/18 03:41:56;;;;;;;2.55;1.42;;;21.10;99.90;;;;;;5077390;28;20193;-89
2023/07/18 03:44:28;;;;;;;3.08;1.60;;;21.20;99.90;;;;;;5098774;28;20291;-90
2023/07/18 03:47:01;;;;;;;2.80;1.40;;;21.10;99.90;;;;;;5096387;28;20203;-92
2023/07/18 03:49:33;;;;;;;2.33;1.50;;;21.10;99.90;;;;;;5096092;28;20219;-84
2023/07/18 03:52:05;;;;;;;2.75;1.38;;;21.20;99.90;;;;;;5095398;28;20219;-91
2023/07/18 03:54:40;;;;;;;3.85;1.50;;;21.10;99.90;;;;;;5073807;28;20192;-90
2023/07/18 03:57:15;;;;;;;3.88;1.30;;;21.00;99.90;;;;;;5081476;28;20191;-89
2023/07/18 03:59:46;;;;;;;3.38;1.40;;;21.20;99.90;;;;;;5077895;28;20227;-89
2023/07/18 04:02:19;;;;;;;3.47;1.33;;;21.10;99.90;;;;;;5079159;28;20279;-88
2023/07/18 04:04:52;;;;;;;1.73;1.15;;;21.10;99.90;;;;;;5075551;28;20203;-86
2023/07/18 04:07:24;;;;;;;1.77;1.02;;;21.10;99.90;;;;;;5072396;28;20192;-86
2023/07/18 04:09:55;;;;;;;3.90;1.35;;;21.10;99.90;;;;;;5079343;28;20230;-87
2023/07/18 04:12:30;;;;;;;3.00;1.35;;;21.20;99.90;;;;;;5079441;28;20227;-88
2023/07/18 04:15:01;;;;;;;7.53;1.63;;;21.20;99.90;;;;;;5078624;28;20259;-87
2023/07/18 04:17:32;;;;;;;2.08;1.30;;;21.30;99.90;;;;;;5072609;28;20207;-87
2023/07/18 04:20:04;;;;;;;2.00;1.10;;;21.30;99.90;;;;;;5056561;28;20204;-87
2023/07/18 04:22:35;;;;;;;1.92;1.00;;;21.30;99.90;;;;;;5065425;28;20224;-86
2023/07/18 04:25:08;;;;;;;1.98;1.00;;;21.30;99.90;;;;;;5064543;28;20195;-88
2023/07/18 04:27:44;;;;;;;2.60;1.30;;;21.30;99.90;;;;;;5062467;28;20192;-88
2023/07/18 04:30:17;;;;;;;3.03;1.48;;;21.30;99.90;;;;;;5071826;28;20609;-88
2023/07/18 04:32:49;;;;;;;3.28;1.20;;;21.30;99.90;;;;;;5076438;28;20196;-87
2023/07/18 04:35:21;;;;;;;2.50;1.10;;;21.30;99.90;;;;;;5073385;28;20207;-87
2023/07/18 04:37:54;;;;;;;2.47;1.20;;;21.30;99.90;;;;;;5066847;28;20208;-86
2023/07/18 04:40:25;;;;;;;3.65;0.90;;;21.40;99.90;;;;;;5065359;28;20203;-86
2023/07/18 04:43:00;;;;;;;2.75;1.00;;;21.40;99.90;;;;;;5058851;28;20205;-87
2023/07/18 04:45:33;;;;;;;1.65;1.00;;;21.40;99.90;;;;;;5058625;28;20229;-89
2023/07/18 04:48:04;;;;;;;4.18;1.13;;;21.30;99.20;;;;;;5059133;28;20228;-90
2023/07/18 04:50:37;;;;;;;1.50;0.90;;;21.40;97.80;;;;;;5067273;28;20204;-90
2023/07/18 04:53:09;;;;;;;2.85;1.00;;;21.40;98.00;;;;;;5061857;28;20204;-89
2023/07/18 04:55:42;;;;;;;3.65;1.00;;;21.40;96.60;;;;;;5052935;28;20207;-88
2023/07/18 04:58:18;;;;;;;3.10;0.95;;;21.40;97.10;;;;;;5060782;28;20197;-91
2023/07/18 05:00:50;;;;;;;1.15;1.00;;;21.40;95.70;;;;;;5075270;28;20213;-88
2023/07/18 05:03:22;;;;;;;2.85;0.90;;;21.40;94.90;;;;;;5074846;28;20204;-87
2023/07/18 05:05:56;;;;;;;3.05;1.00;;;21.30;91.90;;;;;;5075513;28;20655;-87
2023/07/18 05:08:28;;;;;;;1.38;0.80;;;21.30;92.30;;;;;;5073897;28;20299;-87
2023/07/18 05:11:15;;;;;;;4.93;1.10;;;21.40;92.10;;;;;;5059595;28;20199;-91
2023/07/18 05:13:52;;;;;;;4.95;1.25;;;21.40;90.30;;;;;;5043890;28;20226;-90
2023/07/18 05:16:24;;;;;;;2.25;1.00;;;21.50;90.30;;;;;;5049158;28;20198;-87
2023/07/18 05:18:56;;;;;;;4.65;1.10;;;21.50;84.30;;;;;;5074816;28;20208;-88
2023/07/18 05:21:28;;;;;;;1.85;0.90;;;21.60;82.00;;;;;;5086186;28;20186;-87
2023/07/18 05:24:01;;;;;;;1.70;0.90;;;21.60;78.70;;;;;;5070672;28;20200;-88
2023/07/18 05:26:33;;;;;;;1.38;0.90;;;21.60;77.10;;;;;;5068230;28;20594;-88
2023/07/18 05:31:52;;;;;;;1.60;1.02;;;21.70;80.00;;;;;;5075056;28;20651;-90
2023/07/18 05:34:23;;;;;;;2.40;1.02;;;21.80;79.10;;;;;;5076842;28;20200;-90
2023/07/18 05:36:55;;;;;;;1.67;0.80;;;21.80;75.90;;;;;;5076992;28;20659;-91
2023/07/18 05:39:27;;;;;;;3.92;0.82;;;21.70;72.10;;;;;;5072258;28;20200;-89
2023/07/18 05:42:06;;;;;;;0.98;0.70;;;21.60;72.30;;;;;;5064529;28;20220;-87
2023/07/18 05:44:42;;;;;;;1.98;1.00;;;21.60;64.20;;;;;;5078849;28;20206;-90
2023/07/18 05:47:15;;;;;;;2.35;0.80;;;21.50;67.00;;;;;;5056767;28;20200;-89
2023/07/18 05:49:49;;;;;;;2.15;0.70;;;21.60;66.40;;;;;;5072156;28;20235;-90
2023/07/18 05:52:25;;;;;;;0.75;0.52;;;21.60;61.40;;;;;;5074547;28;20218;-89
2023/07/18 05:54:59;;;;;;;3.65;0.80;;;21.70;57.10;;;;;;5075606;28;20793;-89
2023/07/18 05:57:34;;;;;;;1.42;0.77;;;21.80;55.70;;;;;;5072226;28;20208;-90
2023/07/18 06:00:13;;;;;;;2.08;0.93;;;21.80;53.50;;;;;;5079830;28;20585;-90
2023/07/18 06:02:47;;;;;;;0.82;0.70;;;21.90;54.10;;;;;;5072451;28;20220;-90
2023/07/18 06:05:22;;;;;;;0.80;0.63;;;22.00;54.60;;;;;;5076344;28;20230;-89
2023/07/18 06:07:56;;;;;;;0.95;0.70;;;22.00;53.40;;;;;;5058007;28;20206;-90
2023/07/18 06:10:30;;;;;;;1.17;0.80;;;21.90;54.20;;;;;;5056000;28;20707;-89
2023/07/18 06:13:02;;;;;;;2.25;0.70;;;22.00;53.60;;;;;;5072965;28;20203;-88
2023/07/18 06:15:37;;;;;;;0.70;0.70;;;22.00;53.70;;;;;;5054220;28;20185;-90
2023/07/18 06:18:12;;;;;;;1.98;0.90;;;21.90;53.80;;;;;;5076295;28;20196;-91
2023/07/18 06:20:48;;;;;;;3.55;0.80;;;22.00;53.20;;;;;;5061983;28;20195;-90
2023/07/18 06:23:20;;;;;;;0.75;0.55;;;22.00;53.10;;;;;;5077640;28;20227;-91
2023/07/18 06:25:53;;;;;;;2.03;0.60;;;22.00;53.60;;;;;;5066407;28;20250;-90
2023/07/18 06:28:27;;;;;;;1.35;0.80;;;22.10;54.40;;;;;;5076216;28;20196;-91
2023/07/18 06:31:05;;;;;;;1.42;0.80;;;22.10;53.90;;;;;;5057328;28;20227;-90
2023/07/18 06:33:37;;;;;;;3.15;0.70;;;22.00;53.20;;;;;;5046398;28;20200;-91
2023/07/18 06:36:12;;;;;;;1.25;0.80;;;22.00;53.70;;;;;;5066311;28;20215;-92
2023/07/18 06:38:44;;;;;;;2.15;0.90;;;21.90;53.60;;;;;;5058829;28;20199;-90
2023/07/18 06:41:16;;;;;;;2.97;0.88;;;21.80;53.80;;;;;;5055689;28;20204;-89
2023/07/18 06:43:48;;;;;;;1.60;0.88;;;21.70;54.00;;;;;;5058147;28;20669;-89
2023/07/18 06:46:23;;;;;;;4.13;1.00;;;21.60;54.80;;;;;;5059136;28;20263;-87
2023/07/18 06:48:54;;;;;;;2.03;1.05;;;21.50;55.70;;;;;;5067303;28;20643;-89
2023/07/18 06:51:27;;;;;;;3.60;1.10;;;21.40;56.80;;;;;;5074206;28;20218;-89
2023/07/18 06:53:59;;;;;;;3.72;1.10;;;21.30;56.80;;;;;;5069703;28;20223;-88
2023/07/18 06:56:36;;;;;;;4.30;1.67;;;21.10;57.60;;;;;;5073748;28;20202;-88
2023/07/18 06:59:09;;;;;;;2.53;1.30;;;21.20;58.00;;;;;;5070386;28;20191;-88
2023/07/18 07:01:45;;;;;;;2.58;1.20;;;21.00;58.80;;;;;;5065880;28;20295;-88
2023/07/18 07:04:17;;;;;;;2.35;1.40;;;21.00;59.80;;;;;;5073522;28;20191;-88
2023/07/18 07:06:48;;;;;;;5.40;1.65;;;20.90;59.20;;;;;;5072072;28;20180;-86
2023/07/18 07:09:19;;;;;;;3.72;1.55;;;20.90;58.70;;;;;;5051724;28;20219;-86
2023/07/18 07:11:54;;;;;;;2.67;1.42;;;20.80;58.20;;;;;;5058051;28;20770;-85
2023/07/18 07:14:25;;;;;;;1.70;1.42;;;20.80;58.10;;;;;;5077318;28;20202;-87
2023/07/18 07:17:02;;;;;;;3.03;1.52;;;20.70;58.80;;;;;;5075561;28;20207;-89
2023/07/18 07:19:34;;;;;;;2.83;1.35;;;20.60;58.10;;;;;;5078501;28;20238;-87
2023/07/18 07:22:05;;;;;;;2.10;1.60;;;20.60;58.10;;;;;;5072599;28;20184;-89
2023/07/18 07:24:37;;;;;;;2.75;1.50;;;20.60;58.40;;;;;;5073172;28;20203;-88
2023/07/18 07:27:10;;;;;;;3.70;2.00;;;20.50;58.30;;;;;;5073477;28;20215;-88
2023/07/18 07:29:44;;;;;;;3.08;1.52;;;20.50;58.90;;;;;;5073560;28;20632;-89
2023/07/18 07:32:19;;;;;;;3.20;1.88;;;20.40;58.30;;;;;;5072911;28;20528;-90
2023/07/18 07:34:51;;;;;;;2.38;1.67;;;20.30;57.90;;;;;;5061641;28;20200;-89
2023/07/18 07:37:24;;;;;;;1.92;1.30;;;20.30;58.10;;;;;;5076370;28;20185;-86
2023/07/18 07:39:56;;;;;;;2.70;1.50;;;20.20;57.80;;;;;;5073354;28;20188;-87
2023/07/18 07:42:28;;;;;;;4.40;1.98;;;20.30;57.60;;;;;;5073035;28;20203;-87
2023/07/18 07:45:00;;;;;;;2.53;1.80;;;20.30;57.40;;;;;;5072879;28;20196;-85
2023/07/18 07:47:34;;;;;;;2.65;1.70;;;20.30;57.20;;;;;;5071688;28;20196;-85
2023/07/18 07:50:05;;;;;;;1.65;1.55;;;20.20;57.40;;;;;;5065150;28;20218;-85
2023/07/18 07:52:38;;;;;;;2.78;1.80;;;20.20;58.20;;;;;;5071592;28;20200;-86
2023/07/18 07:55:12;;;;;;;2.28;1.95;;;20.10;58.90;;;;;;5071591;28;20219;-86
2023/07/18 07:57:43;;;;;;;3.42;2.00;;;20.00;59.20;;;;;;5071159;28;20199;-86
2023/07/18 08:00:15;;;;;;;3.03;1.77;;;20.00;59.50;;;;;;5071809;28;20207;-86
2023/07/18 08:02:53;;;;;;;3.33;1.83;;;19.90;62.00;;;;;;5074364;28;20538;-86
2023/07/18 08:05:24;;;;;;;3.50;2.30;;;19.80;65.80;;;;;;5083911;28;20200;-83
2023/07/18 08:07:55;;;;;;;3.50;2.33;;;19.80;68.50;;;;;;5087270;28;20251;-83
2023/07/18 08:10:27;;;;;;;3.17;2.08;;;19.70;70.20;;;;;;5094515;28;20207;-85
2023/07/18 08:12:59;;;;;;;2.30;1.80;;;19.60;72.30;;;;;;5092108;28;20188;-88
2023/07/18 08:21:00;;;;;;;4.78;2.90;;;19.30;76.70;;;;;;5085364;28;20220;-85
2023/07/18 08:23:31;;;;;;;4.30;3.90;;;19.20;76.70;;;;;;5086527;28;20208;-83
2023/07/18 08:26:03;;;;;;;6.40;4.75;;;19.10;78.10;;;;;;5077172;28;20196;-86
2023/07/18 08:28:35;;;;;;;9.98;8.40;;;19.00;77.80;;;;;;5080236;28;20192;-89
2023/07/18 08:31:12;;;;;;;11.52;9.43;;;18.90;79.80;;;;;;5080986;28;20220;-88
2023/07/18 08:33:45;;;;;;;10.75;8.70;;;18.80;79.80;;;;;;5072263;28;20206;-90
2023/07/18 08:36:16;;;;;;;8.63;6.05;;;18.70;82.60;;;;;;5077765;28;20226;-88
2023/07/18 08:38:51;;;;;;;5.03;3.80;;;18.70;81.10;;;;;;5063103;28;20279;-85
2023/07/18 08:41:23;;;;;;;5.03;2.58;;;18.70;76.10;;;;;;5069850;28;20191;-85
2023/07/18 08:43:54;;;;;;;5.47;3.42;;;18.70;74.60;;;;;;5074859;28;20558;-86
2023/07/18 08:46:25;;;;;;;5.22;3.50;;;18.70;73.30;;;;;;5075217;28;20192;-87
2023/07/18 08:49:01;;;;;;;2.58;2.17;;;18.70;74.70;;;;;;5074115;28;20228;-87
2023/07/18 08:51:35;;;;;;;5.63;3.80;;;18.70;72.90;;;;;;5076480;28;20199;-87
2023/07/18 08:54:10;;;;;;;4.70;2.92;;;18.70;73.30;;;;;;5075985;28;20206;-87
2023/07/18 08:56:43;;;;;;;4.80;2.35;;;18.60;73.60;;;;;;5075160;28;20196;-87
2023/07/18 08:59:15;;;;;;;5.80;3.08;;;18.70;71.80;;;;;;5055472;28;20203;-86
2023/07/18 09:01:50;;;;;;;5.72;3.05;;;18.60;72.20;;;;;;5077598;28;20214;-84
2023/07/18 09:04:23;;;;;;;8.73;2.60;;;18.60;72.30;;;;;;5073277;28;20203;-87
2023/07/18 09:07:00;;;;;;;5.18;2.60;;;18.60;70.40;;;;;;5074036;28;20203;-87
2023/07/18 09:09:31;;;;;;;5.07;2.90;;;18.60;70.40;;;;;;5073309;28;20267;-86
2023/07/18 09:12:03;;;;;;;4.28;2.10;;;18.60;72.00;;;;;;5073039;28;20224;-85
2023/07/18 09:14:36;;;;;;;2.88;2.20;;;18.60;72.00;;;;;;5075016;28;20279;-87
2023/07/18 09:17:12;;;;;;;4.82;3.10;;;18.50;72.70;;;;;;5073993;28;20200;-85
2023/07/18 09:19:50;;;;;;;4.72;2.92;;;18.50;72.70;;;;;;5074066;28;20211;-86
2023/07/18 09:22:21;;;;;;;3.85;2.35;;;18.50;73.90;;;;;;5074176;28;20299;-87
2023/07/18 09:24:52;;;;;;;4.28;2.22;;;18.40;74.80;;;;;;5074122;28;20655;-86
2023/07/18 09:27:23;;;;;;;4.28;2.42;;;18.30;75.10;;;;;;5061636;28;20211;-86
2023/07/18 09:29:55;;;;;;;7.05;5.55;;;18.30;75.90;;;;;;5062130;28;20215;-87
2023/07/18 09:32:27;;;;;;;5.90;4.38;;;18.20;78.10;;;;;;5073545;28;20192;-86
2023/07/18 09:35:02;;;;;;;4.75;3.97;;;18.20;79.40;;;;;;5081421;28;20259;-87
2023/07/18 09:37:35;;;;;;;5.82;3.72;;;18.10;81.10;;;;;;5074079;28;20199;-87
2023/07/18 09:40:11;;;;;;;3.78;3.20;;;18.10;81.30;;;;;;5056753;28;20204;-86
2023/07/18 09:42:43;;;;;;;5.47;3.05;;;18.00;81.90;;;;;;5068346;28;20199;-86
2023/07/18 09:45:17;;;;;;;6.03;3.05;;;18.00;78.80;;;;;;5063150;28;20193;-87
2023/07/18 09:47:48;;;;;;;6.82;3.15;;;18.00;79.20;;;;;;5054279;28;22177;-86
2023/07/18 09:50:21;;;;;;;5.43;2.63;;;17.90;80.70;;;;;;5073160;28;20239;-87
2023/07/18 09:52:54;;;;;;;3.97;2.58;;;17.90;81.40;;;;;;5073156;28;20694;-88
2023/07/18 09:55:50;;;;;;;4.63;2.60;;;17.90;81.70;;;;;;5110909;27;20841;-87
2023/07/18 09:58:25;;;;;;;5.25;2.83;;;17.80;81.60;;;;;;5097616;28;20195;-86
2023/07/18 10:00:59;;;;;;;3.17;2.50;;;17.80;83.00;;;;;;5090518;28;20199;-86
2023/07/18 10:03:32;;;;;;;7.40;5.82;;;17.70;85.30;;;;;;5089754;28;20291;-88
2023/07/18 10:06:05;;;;;;;5.13;3.60;;;17.70;86.40;;;;;;5093906;28;20211;-88
2023/07/18 10:08:39;;;;;;;4.97;2.90;;;17.60;88.50;;;;;;5105739;28;20297;-86
2023/07/18 10:11:15;;;;;;;4.28;2.65;;;17.50;89.40;;;;;;5104538;28;20290;-87
2023/07/18 10:14:16;;;;;;;5.28;4.07;;;17.50;90.30;;;;;;5093160;28;20296;-87
2023/07/18 10:16:55;;;;;;;7.63;4.80;;;17.40;91.10;;;;;;5090239;28;20229;-87
2023/07/18 10:19:28;;;;;;;4.32;3.20;;;17.40;91.80;;;;;;5106871;28;20194;-88
2023/07/18 10:22:01;;;;;;;5.68;4.30;;;17.40;92.80;;;;;;5111912;28;20206;-89
2023/07/18 10:24:35;;;;;;;6.72;2.78;;;17.40;94.30;;;;;;5112056;28;20210;-89
2023/07/18 10:27:11;;;;;;;4.18;2.65;;;17.30;95.50;;;;;;5092599;28;20193;-88
2023/07/18 10:29:46;;;;;;;5.47;3.58;;;17.20;96.20;;;;;;5099709;28;20198;-87
2023/07/18 10:32:32;;;;;;;7.80;4.43;;;17.20;97.10;;;;;;5095056;28;20653;-88
2023/07/18 10:35:08;;;;;;;5.38;3.60;;;17.00;98.50;;;;;;5097367;28;20318;-89
2023/07/18 10:37:44;;;;;;;3.85;2.88;;;16.90;99.90;;;;;;5110177;28;20191;-89
2023/07/18 10:40:35;;;;;;;2.90;2.20;;;16.80;99.90;;;;;;5110410;28;20562;-88
2023/07/18 10:43:10;;;;;;;3.50;2.30;;;16.80;98.10;;;;;;5117108;28;20218;-85
2023/07/18 10:45:43;;;;;;;5.82;2.80;;;16.80;97.00;;;;;;5100610;28;20206;-89
2023/07/18 10:48:26;;;;;;;3.95;2.40;;;16.90;95.60;;;;;;5095254;28;20207;-87
2023/07/18 10:50:59;;;;;;;5.82;2.42;;;16.90;96.40;;;;;;5092829;28;20210;-87
2023/07/18 10:53:33;;;;;;;3.70;2.33;;;16.90;95.90;;;;;;5089699;28;20195;-87
2023/07/18 10:56:06;;;;;;;4.63;2.75;;;16.90;94.10;;;;;;5097502;28;20566;-88
2023/07/18 10:58:40;;;;;;;5.72;2.40;;;16.90;93.60;;;;;;5109249;28;20206;-87
2023/07/18 11:01:13;;;;;;;2.90;1.95;;;16.90;93.10;;;;;;5089026;28;20194;-87
2023/07/18 11:03:48;;;;;;;5.13;2.28;;;16.90;93.10;;;;;;5091001;28;20192;-88
2023/07/18 11:06:21;;;;;;;3.47;2.20;;;16.90;92.80;;;;;;5085450;28;20619;-88
2023/07/18 11:08:52;;;;;;;2.97;1.98;;;16.90;92.00;;;;;;5081233;28;20310;-89
2023/07/18 11:11:25;;;;;;;3.50;2.17;;;16.90;91.00;;;;;;5084212;28;20565;-87
2023/07/18 11:13:59;;;;;;;2.95;2.33;;;16.90;90.20;;;;;;5095398;28;20670;-88
2023/07/18 11:16:30;;;;;;;3.55;1.98;;;17.00;87.80;;;;;;5084096;28;20229;-89
2023/07/18 11:19:02;;;;;;;2.38;1.80;;;17.00;90.10;;;;;;5095965;28;20191;-88
2023/07/18 11:21:37;;;;;;;2.50;1.80;;;17.00;89.70;;;;;;5086109;28;20215;-86
2023/07/18 11:24:10;;;;;;;2.55;2.05;;;17.10;90.20;;;;;;5087759;28;20210;-88
2023/07/18 11:26:43;;;;;;;3.00;2.10;;;17.10;91.60;;;;;;5078174;28;20210;-89
2023/07/18 11:29:18;;;;;;;4.25;1.70;;;17.10;92.40;;;;;;5077296;28;20207;-88
2023/07/18 11:31:50;;;;;;;3.60;1.90;;;17.10;92.50;;;;;;5077879;28;20192;-88
2023/07/18 11:34:27;;;;;;;3.42;2.10;;;17.00;92.90;;;;;;5077321;28;20219;-88
2023/07/18 11:36:58;;;;;;;3.28;2.20;;;17.00;92.90;;;;;;5079014;28;20187;-89
2023/07/18 11:39:34;;;;;;;4.40;2.50;;;17.00;92.90;;;;;;5087308;28;20210;-90
2023/07/18 11:42:13;;;;;;;5.13;2.65;;;16.90;92.90;;;;;;5126511;28;20198;-88
2023/07/18 11:44:49;;;;;;;5.18;2.30;;;16.90;92.20;;;;;;5104486;28;20247;-88
2023/07/18 11:47:24;;;;;;;7.80;2.50;;;16.90;91.50;;;;;;5087972;28;20565;-87
2023/07/18 11:50:00;;;;;;;3.75;2.45;;;16.70;90.80;;;;;;5085149;28;20256;-88
2023/07/18 11:52:38;;;;;;;5.07;2.90;;;16.70;91.10;;;;;;5086595;28;20215;-89
2023/07/18 11:58:49;;;;;;;5.28;2.13;;;16.60;90.40;;;;;;5071198;28;20643;-90
2023/07/18 12:01:31;;;;;;;3.15;2.20;;;16.60;90.50;;;;;;5095502;28;20255;-91
2023/07/18 12:04:02;;;;;;;4.55;2.00;;;16.70;92.00;;;;;;5102875;28;20194;-84
2023/07/18 12:06:42;;;;;;;4.22;1.95;;;16.70;91.70;;;;;;5102977;28;20198;-89
2023/07/18 12:12:12;;;;;;;3.20;2.00;;;16.80;91.60;;;;;;5081760;28;20195;-89
2023/07/18 12:14:51;;;;;;;3.25;2.03;;;16.80;91.40;;;;;;5088116;28;20235;-90
2023/07/18 12:17:44;;;;;;;3.35;2.10;;;16.80;90.80;;;;;;5083186;28;20199;-89
2023/07/18 12:23:10;;;;;;;5.47;2.03;;;16.80;90.90;;;;;;5086006;28;20667;-91
2023/07/18 12:28:34;;;;;;;4.05;2.20;;;16.60;87.20;;;;;;5086195;28;20220;-90
2023/07/18 12:31:16;;;;;;;2.88;2.00;;;16.50;87.20;;;;;;5086613;28;20164;-90
2023/07/18 12:33:52;;;;;;;2.00;1.80;;;16.40;88.20;;;;;;5096698;28;20195;-91
2023/07/18 12:36:42;;;;;;;2.85;1.90;;;16.50;88.60;;;;;;5090417;28;20263;-92
2023/07/18 12:39:14;;;;;;;4.00;1.98;;;16.40;89.20;;;;;;5084502;28;20204;-92
2023/07/18 12:41:57;;;;;;;3.72;1.42;;;16.30;89.40;;;;;;5084799;28;20219;-91
2023/07/18 12:44:45;;;;;;;2.13;1.50;;;16.30;90.10;;;;;;5083430;28;20211;-91
2023/07/18 12:47:20;;;;;;;2.95;1.75;;;16.30;90.70;;;;;;5082297;28;20245;-90
2023/07/18 12:50:03;;;;;;;3.20;1.85;;;16.30;91.20;;;;;;5085156;28;20202;-90
2023/07/18 12:52:37;;;;;;;3.22;1.52;;;16.20;91.50;;;;;;5087576;28;20238;-90
2023/07/18 12:55:19;;;;;;;2.42;1.60;;;16.20;91.80;;;;;;5088718;28;20282;-89
2023/07/18 12:57:52;;;;;;;2.47;1.55;;;16.20;92.10;;;;;;5095809;28;20206;-90
2023/07/18 13:00:32;;;;;;;2.17;1.70;;;16.20;92.50;;;;;;5096291;28;20188;-91
2023/07/18 13:03:12;;;;;;;3.92;2.17;;;16.10;92.90;;;;;;5094516;28;20203;-91
2023/07/18 13:05:49;;;;;;;2.63;1.70;;;16.20;94.10;;;;;;5124424;28;20387;-91
2023/07/18 13:08:29;;;;;;;3.95;1.80;;;16.10;93.90;;;;;;5114545;28;20221;-90
2023/07/18 13:11:07;;;;;;;3.85;1.90;;;16.10;94.00;;;;;;5109817;28;20197;-89
2023/07/18 13:13:47;;;;;;;4.15;1.80;;;16.10;94.00;;;;;;5090077;28;20207;-91
2023/07/18 13:16:21;;;;;;;2.15;1.50;;;16.10;94.10;;;;;;5100038;28;20210;-91
2023/07/18 13:21:52;;;;;;;3.63;1.80;;;16.00;95.30;;;;;;5095406;28;20244;-90
2023/07/18 13:24:27;;;;;;;3.30;1.60;;;15.90;95.80;;;;;;5120808;28;20182;-91
2023/07/18 13:27:01;;;;;;;2.83;1.58;;;15.90;96.80;;;;;;5098421;28;20210;-89
2023/07/18 13:29:36;;;;;;;2.15;1.52;;;16.00;97.90;;;;;;5096001;28;20195;-89
2023/07/18 13:32:08;;;;;;;3.55;1.60;;;16.00;98.20;;;;;;5083705;28;20676;-87
2023/07/18 13:34:39;;;;;;;2.08;1.67;;;16.00;99.00;;;;;;5081516;28;20230;-89
2023/07/18 13:37:13;;;;;;;4.65;1.77;;;16.00;99.40;;;;;;5089891;28;20187;-88
2023/07/18 13:39:44;;;;;;;3.08;1.33;;;15.90;99.90;;;;;;5073711;28;20188;-87
2023/07/18 13:42:16;;;;;;;1.90;1.35;;;15.90;99.90;;;;;;5073240;28;20648;-88
2023/07/18 13:44:53;;;;;;;1.95;1.50;;;15.90;99.90;;;;;;5073535;28;20206;-88
2023/07/18 13:47:25;;;;;;;2.92;1.70;;;15.80;99.90;;;;;;5079023;28;20248;-88